Tropical Cyclones
[Index]
Main Index Home Page Stock Weather Photos Extreme Storms Discussion Storm News and Storm Chasing Reports Tropical Cyclones / Hurricanes / Typhoons Weather Data and Links Wild Fires / Bushfires Weather Observation Techniques Weather Picture Catalogue Tornado Pictures and Reports Stock Video Footage and DVDs for sale
Season 2003-2004 Tropical Cyclone OSCAR-ITSENG Track Map
Season 2003-2004 Summaries: [BoM-AU] [JTWC-AU] [JTWC-SIO] [JTWC-SPAC] [JTWC-SH]
<<- Previous TC | JTWC 2003-2004 Season | Next TC ->>

click for intensity scale information  Lat/long Grid: Show Hide

 Date Labels: Show Hide

Joint Typhoon Warning Centre Cyclone Data

Name: OSCAR-ITSENG

21 Mar 2004 00:00 UTC to 28 Mar 2004 06:00 UTC

    date/time    lat    long     hPa   cat  kts
2004-03-21 00   12.5   103.4    1006         15          
2004-03-21 06   13.2   103.8    1006         15          
2004-03-21 12   13.8   103.6    1002         25          
2004-03-21 18   14.2   103.2    1002         25          
2004-03-22 00   14.5   102.6    1002         25          
2004-03-22 06   14.8   101.9    1002         25          
2004-03-22 12   14.8   101.1    1002         25          
2004-03-22 18   14.8   100.3    1002         25          
2004-03-23 00   14.8    99.7    1002         25          
2004-03-23 06   14.7    99.1    1002         25          
2004-03-23 12   14.7    98.4    1000         30          
2004-03-23 18   14.6    97.7     997         35          
2004-03-24 00   14.5    96.9     991    1    45          
2004-03-24 06   14.5    96.1     987    1    50          
2004-03-24 12   14.6    95.3     984    2    55          
2004-03-24 12   14.6    95.3     984    2    55          
2004-03-24 18   14.9    94.6     980    2    60          
2004-03-24 18   14.9    94.6     980    2    60          
2004-03-25 00   15.3    94.0     976    2    65          
2004-03-25 00   15.3    94.0     976    2    65          
2004-03-25 06   15.8    93.4     972    2    70          
2004-03-25 06   15.8    93.4     972    2    70          
2004-03-25 12   16.2    92.9     963    3    80          
2004-03-25 12   16.2    92.9     963    3    80          
2004-03-25 18   16.5    92.6     938    4   105          
2004-03-25 18   16.5    92.6     938    4   105          
2004-03-26 00   16.8    92.4     927    4   115          
2004-03-26 00   16.8    92.4     927    4   115          
2004-03-26 00   16.8    92.4     927    4   115          
2004-03-26 06   17.1    92.2     927    4   115          
2004-03-26 06   17.1    92.2     927    4   115          
2004-03-26 06   17.1    92.2     927    4   115          
2004-03-26 12   17.4    92.0     933    4   110          
2004-03-26 12   17.4    92.0     933    4   110          
2004-03-26 12   17.4    92.0     933    4   110          
2004-03-26 18   17.7    91.7     944    4   100          
2004-03-26 18   17.7    91.7     944    4   100          
2004-03-26 18   17.7    91.7     944    4   100          
2004-03-27 00   18.1    91.3     958    3    85          
2004-03-27 00   18.1    91.3     958    3    85          
2004-03-27 06   18.5    90.9     980    2    60          
2004-03-27 12   19.1    90.4     984    2    55          
2004-03-27 18   19.5    89.7     994    1    40          
2004-03-28 00   19.8    89.1    1000         30          
2004-03-28 06   20.4    89.2    1002         25          
Winds are 1-min average.

Tropical cyclone tracks developed by Michael Bath using data from the Joint Typhoon Warning Centre Best Tracks and Google Maps.


[Australian Severe Weather index] [Copyright Notice] [Email Contacts] [Search This Site] [Privacy Policy]
Document: tropical_cyclone_oscar-itseng.htm Updated: 28 June 2017